Bellevue, WA (98006)

8:46 AM PDT on August 22, 2014 (GMT -0700)
Glendale 3rd Tee | Change Station
CLOSE
Current Station
Personal Weather Station
Location: Bellevue, WA
Elevation: 138 ft
Nearby Weather Stations

Elev 138 ft 47.61 °N, 122.16 °W | Updated 0 second ago

Clear
Clear
59.2 °F
Feels Like 59.2 °F
N
2.0
Wind Variable Wind from NW
Gusts 3.0 mph

Today
High -- | Low -- °F
--% Chance of Precip.
Yesterday
High -- | Low -- °F
Precip. -- in
6:13 AM 8:08 PM
Waning Crescent, 8% visible
Pressure 30.06 in
Visibility 8.0 miles
Clouds Clear
Dew Point 54 °F
Humidity 83%
Rainfall 0.00 in
Snow Depth Not available.
UV 1.1 out of 12
Pollen 3.70 out of 12
Air Quality Not available.
Flu Activity Not available.
METAR KRNT 221453Z 00000KT 8SM CLR 14/12 A3005 RMK AO2 SLP180 T01390117 53011

More Conditions Fewer Conditions

Pressure 30.06 in
Visibility 8.0 miles
Clouds Clear
Dew Point 54 °F
Humidity 83%
Rainfall 0.00 in
Snow Depth Not available.
UV 1.1 out of 12
Pollen 3.70 out of 12
Air Quality Not available.
Flu Activity Not available.
METAR KRNT 221453Z 00000KT 8SM CLR 14/12 A3005 RMK AO2 SLP180 T01390117 53011

More Conditions Fewer Conditions

10-Day Weather Forecast

Almanac

Astronomy

Aug. 22, 2014 Rise Set
Actual Time 6:13 AM PDT 8:08 PM PDT
Civil Twilight 5:40 AM PDT 8:40 PM PDT
Nautical Twilight 5:00 AM PDT 9:21 PM PDT
Astronomical Twilight 4:15 AM PDT 10:05 PM PDT
Moon 3:36 AM PDT 6:23 PM PDT
Length of Visible Light 14h 59m
Length of Day
13h 54m
Tomorrow will be 3m 11s shorter.
Waning Crescent, 8% of the Moon is Illuminated
Today
Waning Crescent
Aug 25
New
Sep 2
First Quarter
Sep 8
Full
Sep 15
Last Quarter

Today's Extremes

State Highs State Lows

Community

WunderPhotos

Upload Photos

1,746,188 photos uploaded!

Nearby

Snow Depth

Station Depth Elevation
Alpine Meadows 0 in 3500 ft
Skookum Creek 0 in 3920 ft
Olallie Meadows 2 in 3700 ft
Meadows Pass 0 in 3500 ft
Mount Crag 0 in 4050 ft

Earthquake Activity

City Distance Mag. Time & Date
No recent earthquake activity has been reported nearby.
Minimum magnitude displayed is 2.5.

Coastal Water Temperatures

Place Temperature
Port Townsend, WA 53.1 °F
Seattle, WA 55.9 °F
Friday Harbor, WA 54.0 °F
Tacoma, WA 55.9 °F

Nearby Weather Stations